createdAt,value
2018-11-22T00:00:21.989Z,102027.31
2018-11-22T00:03:09.332Z,102019.81
2018-11-22T00:05:56.676Z,102026.98
2018-11-22T00:11:11.581Z,102012.91
2018-11-22T00:13:39.822Z,102021.27
2018-11-22T00:16:08.045Z,102019.43
2018-11-22T00:18:55.394Z,102025.66
2018-11-22T00:21:23.634Z,102023.08
2018-11-22T00:23:51.894Z,102021.25
2018-11-22T00:26:39.219Z,102023.98
2018-11-22T00:31:54.561Z,102016.91
2018-11-22T00:34:22.776Z,102018.11
2018-11-22T00:36:51.005Z,102014.66
2018-11-22T00:39:38.359Z,102016.48
2018-11-22T00:42:25.734Z,102015.11
2018-11-22T00:44:53.987Z,102013.33
2018-11-22T00:47:22.221Z,102011.62
2018-11-22T00:49:50.423Z,102008.98
2018-11-22T00:52:37.779Z,102017.36
2018-11-22T00:55:27.163Z,102016.03
2018-11-22T00:57:56.011Z,102012.91
2018-11-22T01:00:43.339Z,102012.38
2018-11-22T01:03:30.693Z,102015.59
2018-11-22T01:05:58.936Z,102017.36
2018-11-22T01:08:46.272Z,102019.56
2018-11-22T01:11:33.586Z,102027.05
2018-11-22T01:14:01.860Z,102023.46
2018-11-22T01:16:30.067Z,102027.92
2018-11-22T01:18:58.330Z,102030.58
2018-11-22T01:21:45.633Z,102027.49
2018-11-22T01:27:01.107Z,102027.10
2018-11-22T01:29:48.451Z,102020.00
2018-11-22T01:32:35.817Z,102019.12
2018-11-22T01:37:57.377Z,102009.43
2018-11-22T01:40:44.696Z,102009.00
2018-11-22T01:43:32.062Z,102013.38
2018-11-22T01:48:52.976Z,102009.44
2018-11-22T01:51:40.301Z,102015.16
2018-11-22T01:54:27.697Z,102009.00
2018-11-22T01:59:48.702Z,102016.53
2018-11-22T02:02:36.053Z,102002.89
2018-11-22T02:05:05.173Z,102003.83
2018-11-22T02:07:52.513Z,102012.97
2018-11-22T02:10:21.672Z,102012.13
2018-11-22T02:13:09.018Z,102005.59
2018-11-22T02:15:56.353Z,102010.00
2018-11-22T02:21:11.207Z,102009.95
2018-11-22T02:23:39.449Z,102008.63
2018-11-22T02:26:07.690Z,102009.11
2018-11-22T02:28:55.058Z,102007.73
2018-11-22T02:31:23.298Z,102014.41
2018-11-22T02:33:51.528Z,102017.49
2018-11-22T02:36:38.855Z,102014.84
2018-11-22T02:41:48.928Z,102011.43
2018-11-22T02:44:17.171Z,102015.73
2018-11-22T02:46:45.403Z,102018.48
2018-11-22T02:49:13.665Z,102023.83
2018-11-22T02:51:41.871Z,102016.72
2018-11-22T02:54:29.210Z,102017.60
2018-11-22T02:57:16.556Z,102016.30
2018-11-22T03:02:32.374Z,102019.36
2018-11-22T03:05:00.626Z,102016.34
2018-11-22T03:07:47.928Z,102022.00
2018-11-22T03:10:35.313Z,102021.52
2018-11-22T03:15:56.758Z,102021.19
2018-11-22T03:18:44.107Z,102018.88
2018-11-22T03:21:12.372Z,102013.70
2018-11-22T03:23:40.599Z,102012.83
2018-11-22T03:26:27.960Z,102012.38
2018-11-22T03:31:43.232Z,102010.61
2018-11-22T03:34:11.490Z,102015.92
2018-11-22T03:36:58.800Z,102019.87
2018-11-22T03:39:46.171Z,102012.88
2018-11-22T03:42:14.405Z,102015.96
2018-11-22T03:44:42.660Z,102015.58
2018-11-22T03:47:29.972Z,102011.56
2018-11-22T03:49:58.229Z,102013.81
2018-11-22T03:52:45.564Z,102016.52
2018-11-22T03:55:14.979Z,102012.06
2018-11-22T03:57:43.628Z,102011.50
2018-11-22T04:00:31.912Z,102007.59
2018-11-22T04:03:19.250Z,102009.35
2018-11-22T04:05:47.513Z,102006.32
2018-11-22T04:08:15.724Z,102007.60
2018-11-22T04:10:43.977Z,101997.01
2018-11-22T04:13:31.289Z,102003.18
2018-11-22T04:15:59.565Z,102000.11
2018-11-22T04:18:46.922Z,102001.88
2018-11-22T04:24:07.882Z,102001.49
2018-11-22T04:26:55.208Z,102002.31
2018-11-22T04:32:10.354Z,101997.39
2018-11-22T04:34:38.608Z,102006.77
2018-11-22T04:37:25.930Z,102000.47
2018-11-22T04:39:54.205Z,102002.18
2018-11-22T04:42:41.528Z,101996.09
2018-11-22T04:47:54.250Z,102000.55
2018-11-22T04:50:32.152Z,102000.11
2018-11-22T04:53:19.473Z,102000.99
2018-11-22T04:58:35.014Z,101997.91
2018-11-22T05:01:03.279Z,101997.97
2018-11-22T05:11:58.293Z,102002.36
2018-11-22T05:14:45.639Z,102004.57
2018-11-22T05:17:32.964Z,102001.98
2018-11-22T05:20:01.216Z,102005.45
2018-11-22T05:22:48.536Z,102000.22
2018-11-22T05:25:16.810Z,102012.94
2018-11-22T05:27:45.098Z,102018.22
2018-11-22T05:30:18.624Z,102009.81
2018-11-22T05:32:47.055Z,102008.98
2018-11-22T05:35:34.396Z,102009.86
2018-11-22T05:38:21.737Z,101999.66
2018-11-22T05:40:49.986Z,102007.98
2018-11-22T05:43:18.210Z,102006.77
2018-11-22T05:45:46.463Z,102011.19
2018-11-22T05:48:33.791Z,102016.42
2018-11-22T05:51:02.051Z,102011.56
2018-11-22T05:53:49.364Z,102013.77
2018-11-22T05:59:04.395Z,102012.01
2018-11-22T06:01:32.654Z,102010.29
2018-11-22T06:04:19.975Z,102014.38
2018-11-22T06:06:48.239Z,102011.34
2018-11-22T06:09:35.586Z,102016.58
2018-11-22T06:14:56.554Z,102013.55
2018-11-22T06:17:43.869Z,102018.95
2018-11-22T06:20:31.945Z,102018.01
2018-11-22T06:25:52.705Z,102022.76
2018-11-22T06:28:40.020Z,102019.22
2018-11-22T06:31:27.379Z,102019.61
2018-11-22T06:36:48.430Z,102032.44
2018-11-22T06:39:16.656Z,102023.08
2018-11-22T06:42:03.993Z,102035.85
2018-11-22T06:44:51.332Z,102031.94
2018-11-22T06:47:38.671Z,102040.77
2018-11-22T06:52:54.735Z,102031.94
2018-11-22T06:55:42.061Z,102048.24
2018-11-22T06:58:29.393Z,102035.30
2018-11-22T07:00:57.658Z,102035.86
2018-11-22T07:03:25.891Z,102042.03
2018-11-22T07:05:54.141Z,102032.33
2018-11-22T07:08:22.351Z,102041.58
2018-11-22T07:10:50.600Z,102040.69
2018-11-22T07:13:37.928Z,102046.36
2018-11-22T07:16:25.449Z,102047.69
2018-11-22T07:21:46.396Z,102045.55
2018-11-22T07:24:33.717Z,102045.99
2018-11-22T07:27:21.086Z,102046.00
2018-11-22T07:32:42.026Z,102047.80
2018-11-22T07:35:11.691Z,102046.93
2018-11-22T07:37:59.022Z,102056.19
2018-11-22T07:40:46.401Z,102062.73
2018-11-22T07:43:14.651Z,102055.24
2018-11-22T07:45:43.016Z,102059.22
2018-11-22T07:48:11.368Z,102061.86
2018-11-22T07:50:58.699Z,102061.41
2018-11-22T07:56:20.476Z,102077.34
2018-11-22T07:59:07.794Z,102067.14
2018-11-22T08:01:36.060Z,102071.17
2018-11-22T08:04:04.288Z,102064.51
2018-11-22T08:06:51.643Z,102081.70
2018-11-22T08:12:12.760Z,102067.16
2018-11-22T08:15:00.097Z,102072.81
2018-11-22T08:17:47.455Z,102070.23
2018-11-22T08:23:09.181Z,102070.67
2018-11-22T08:25:37.406Z,102068.84
2018-11-22T08:28:25.172Z,102076.72
2018-11-22T08:31:12.570Z,102086.78
2018-11-22T08:36:33.495Z,102087.66
2018-11-22T08:39:01.733Z,102083.30
2018-11-22T08:41:29.973Z,102085.02
2018-11-22T08:44:17.286Z,102094.82
2018-11-22T08:46:45.562Z,102097.03
2018-11-22T08:49:13.840Z,102095.65
2018-11-22T08:51:42.259Z,102101.33
2018-11-22T08:54:29.566Z,102102.70
2018-11-22T08:56:57.832Z,102108.86
2018-11-22T08:59:45.143Z,102108.87
2018-11-22T09:02:13.433Z,102101.33
2018-11-22T09:05:00.758Z,102093.06
2018-11-22T09:12:54.895Z,102099.25
2018-11-22T09:15:31.206Z,102096.65
2018-11-22T09:17:52.781Z,102099.36
2018-11-22T09:20:22.401Z,102097.92
2018-11-22T09:22:50.644Z,102105.29
2018-11-22T09:25:37.952Z,102113.83
2018-11-22T09:28:25.327Z,102111.66
2018-11-22T09:36:34.158Z,102104.67
2018-11-22T09:39:21.502Z,102105.60
2018-11-22T09:41:49.779Z,102107.42
2018-11-22T09:44:37.094Z,102109.27
2018-11-22T09:47:05.592Z,102106.92
2018-11-22T09:49:52.919Z,102099.86
2018-11-22T09:55:08.104Z,102106.55
2018-11-22T09:57:55.517Z,102111.08
2018-11-22T10:00:42.784Z,102101.84
2018-11-22T10:05:57.838Z,102108.05
2018-11-22T10:08:45.127Z,102104.97
2018-11-22T10:11:32.473Z,102102.39
2018-11-22T10:16:48.102Z,102098.84
2018-11-22T10:19:35.396Z,102109.05
2018-11-22T10:22:22.775Z,102105.09
2018-11-22T10:24:51.019Z,102106.42
2018-11-22T10:27:19.255Z,102105.09
2018-11-22T10:29:47.468Z,102099.81
2018-11-22T10:32:34.814Z,102106.42
2018-11-22T10:35:22.274Z,102102.88
2018-11-22T10:40:36.955Z,102105.09
2018-11-22T10:43:24.303Z,102096.72
2018-11-22T10:46:11.651Z,102106.52
2018-11-22T10:51:26.903Z,102102.13
2018-11-22T10:53:55.140Z,102099.04
2018-11-22T10:56:23.373Z,102097.77
2018-11-22T10:59:10.704Z,102091.92
2018-11-22T11:01:58.037Z,102090.16
2018-11-22T11:04:46.957Z,102091.88
2018-11-22T11:07:34.321Z,102091.94
2018-11-22T11:10:02.578Z,102089.33
2018-11-22T11:12:30.808Z,102089.34
2018-11-22T11:14:59.017Z,102084.05
2018-11-22T11:17:46.343Z,102084.98
2018-11-22T11:20:33.656Z,102081.50
2018-11-22T11:23:21.015Z,102085.97
2018-11-22T11:28:42.611Z,102080.14
2018-11-22T11:31:29.945Z,102082.44
2018-11-22T11:34:17.310Z,102078.81
2018-11-22T11:36:45.567Z,102078.37
2018-11-22T11:39:13.814Z,102074.79
2018-11-22T11:42:01.156Z,102078.75
2018-11-22T11:44:29.412Z,102066.56
2018-11-22T11:46:57.665Z,102065.69
2018-11-22T11:49:45.898Z,102079.69
2018-11-22T11:55:08.986Z,102067.45
2018-11-22T11:57:37.241Z,102064.86
2018-11-22T12:00:46.430Z,102053.39
2018-11-22T12:06:02.139Z,102051.72
2018-11-22T12:08:49.486Z,102050.86
2018-11-22T12:11:36.820Z,102046.87
2018-11-22T12:16:52.042Z,102055.80
2018-11-22T12:19:20.294Z,102046.44
2018-11-22T12:22:07.609Z,102046.48
2018-11-22T12:24:55.030Z,102045.94
2018-11-22T12:27:23.214Z,102039.33
2018-11-22T12:30:10.541Z,102038.95
2018-11-22T12:32:57.893Z,102039.86
2018-11-22T12:38:34.543Z,102036.28
2018-11-22T12:41:21.866Z,102029.68
2018-11-22T12:43:50.115Z,102029.17
2018-11-22T12:46:18.348Z,102025.71
2018-11-22T12:49:05.686Z,102040.27
2018-11-22T12:51:53.061Z,102025.22
2018-11-22T12:57:08.543Z,102025.99
2018-11-22T12:59:55.883Z,102020.80
2018-11-22T13:02:43.227Z,102029.53
2018-11-22T13:07:58.572Z,102024.23
2018-11-22T13:10:45.931Z,102023.36
2018-11-22T13:13:33.266Z,102017.13
2018-11-22T13:18:48.518Z,102025.45
2018-11-22T13:21:35.877Z,102022.86
2018-11-22T13:24:04.124Z,102030.80
2018-11-22T13:26:51.467Z,102033.00
2018-11-22T13:32:02.539Z,102027.55
2018-11-22T13:34:49.886Z,102028.14
2018-11-22T13:37:37.228Z,102030.30
2018-11-22T13:42:48.023Z,102021.93
2018-11-22T13:45:36.626Z,102026.73
2018-11-22T13:48:23.975Z,102023.23
2018-11-22T13:53:38.843Z,102020.11
2018-11-22T13:56:26.167Z,102021.53
2018-11-22T13:59:13.504Z,102019.63
2018-11-22T14:04:28.333Z,102018.34
2018-11-22T14:06:56.573Z,102017.95
2018-11-22T14:09:24.790Z,102022.84
2018-11-22T14:11:53.032Z,102027.94
2018-11-22T14:14:40.384Z,102024.41
2018-11-22T14:17:27.733Z,102026.66
2018-11-22T14:22:43.491Z,102031.91
2018-11-22T14:25:30.835Z,102029.75
2018-11-22T14:28:18.166Z,102036.81
2018-11-22T14:33:33.070Z,102030.19
2018-11-22T14:36:20.367Z,102031.84
2018-11-22T14:38:48.650Z,102033.16
2018-11-22T14:41:16.856Z,102026.13
2018-11-22T14:44:04.179Z,102026.11
2018-11-22T14:49:19.297Z,102017.69
2018-11-22T14:52:08.439Z,102020.28
2018-11-22T14:54:55.785Z,102024.75
2018-11-22T14:57:24.056Z,102022.05
2018-11-22T14:59:52.290Z,102018.07
2018-11-22T15:02:20.532Z,102014.16
2018-11-22T15:04:48.749Z,102017.69
2018-11-22T15:07:17.334Z,102015.93
2018-11-22T15:10:04.359Z,102023.86
2018-11-22T15:12:51.733Z,102019.45
2018-11-22T15:18:07.405Z,102015.03
2018-11-22T15:21:00.860Z,102020.77
2018-11-22T15:26:15.862Z,102024.30
2018-11-22T15:29:03.185Z,102028.20
2018-11-22T15:31:50.558Z,102033.06
2018-11-22T15:34:18.805Z,102028.72
2018-11-22T15:36:47.060Z,102030.41
2018-11-22T15:39:15.340Z,102028.20
2018-11-22T15:44:30.145Z,102027.77
2018-11-22T15:47:17.488Z,102037.91
2018-11-22T15:49:45.718Z,102030.85
2018-11-22T15:52:13.974Z,102029.98
2018-11-22T15:55:01.298Z,102027.27
2018-11-22T16:03:05.337Z,102034.33
2018-11-22T16:05:33.931Z,102034.70
2018-11-22T16:08:02.176Z,102036.91
2018-11-22T16:10:49.501Z,102036.98
2018-11-22T16:13:17.773Z,102035.66
2018-11-22T16:16:05.849Z,102032.98
2018-11-22T16:21:26.765Z,102036.91
2018-11-22T16:24:14.222Z,102034.77
2018-11-22T16:27:01.594Z,102037.85
2018-11-22T16:29:29.826Z,102043.02
2018-11-22T16:31:58.079Z,102042.52
2018-11-22T16:34:26.458Z,102046.05
2018-11-22T16:37:13.812Z,102042.63
2018-11-22T16:40:01.147Z,102039.89
2018-11-22T16:45:36.098Z,102034.20
2018-11-22T16:48:06.017Z,102032.89
2018-11-22T16:50:53.343Z,102032.94
2018-11-22T16:56:08.900Z,102041.27
2018-11-22T16:58:56.241Z,102040.32
2018-11-22T17:01:43.606Z,102040.82
2018-11-22T17:04:11.843Z,102046.50
2018-11-22T17:06:59.182Z,102042.09
2018-11-22T17:09:27.511Z,102039.89
2018-11-22T17:12:14.868Z,102050.91
2018-11-22T17:17:36.521Z,102053.53
2018-11-22T17:20:24.499Z,102051.29
2018-11-22T17:23:11.876Z,102051.72
2018-11-22T17:28:32.713Z,102048.20
2018-11-22T17:31:20.032Z,102061.42
2018-11-22T17:33:48.313Z,102053.73
2018-11-22T17:36:16.624Z,102053.34
2018-11-22T17:39:04.010Z,102062.16
2018-11-22T17:44:25.105Z,102065.58
2018-11-22T17:46:53.486Z,102065.88
2018-11-22T17:49:21.771Z,102062.30
2018-11-22T17:51:50.049Z,102065.06
2018-11-22T17:54:18.366Z,102071.21
2018-11-22T17:57:05.676Z,102075.13
2018-11-22T17:59:33.939Z,102074.74
2018-11-22T18:02:02.192Z,102073.73
2018-11-22T18:04:30.443Z,102064.91
2018-11-22T18:07:17.764Z,102069.72
2018-11-22T18:09:46.048Z,102063.53
2018-11-22T18:12:14.267Z,102073.23
2018-11-22T18:15:01.607Z,102059.12
2018-11-22T18:17:29.846Z,102063.11
2018-11-22T18:19:58.090Z,102070.16
2018-11-22T18:22:45.416Z,102069.63
2018-11-22T18:28:01.175Z,102068.76
2018-11-22T18:30:48.497Z,102073.59
2018-11-22T18:33:16.750Z,102071.31
2018-11-22T18:35:44.990Z,102068.70
2018-11-22T18:38:13.220Z,102063.41
2018-11-22T18:41:00.567Z,102066.49
2018-11-22T18:43:47.879Z,102065.62
2018-11-22T18:49:02.933Z,102070.75
2018-11-22T18:51:50.281Z,102065.47
2018-11-22T18:54:18.558Z,102066.84
2018-11-22T18:57:05.915Z,102065.52
2018-11-22T19:02:27.181Z,102073.76
2018-11-22T19:05:14.522Z,102068.11
2018-11-22T19:07:43.943Z,102061.80
2018-11-22T19:10:32.449Z,102057.89
2018-11-22T19:15:48.214Z,102061.38
2018-11-22T19:18:35.535Z,102056.09
2018-11-22T19:21:03.848Z,102061.45
2018-11-22T19:23:51.179Z,102060.56
2018-11-22T19:29:06.531Z,102056.30
2018-11-22T19:31:34.811Z,102060.77
2018-11-22T19:34:03.261Z,102059.45
2018-11-22T19:36:50.607Z,102062.16
2018-11-22T19:39:18.898Z,102062.59
2018-11-22T19:42:06.270Z,102061.58
2018-11-22T19:47:26.987Z,102052.84
2018-11-22T19:50:14.323Z,102048.05
2018-11-22T19:53:01.682Z,102056.36
2018-11-22T19:58:23.437Z,102059.42
2018-11-22T20:00:51.674Z,102058.49
2018-11-22T20:03:19.910Z,102063.02
2018-11-22T20:06:07.246Z,102063.48
2018-11-22T20:08:54.615Z,102064.28
2018-11-22T20:14:16.098Z,102073.95
2018-11-22T20:17:03.423Z,102076.09
2018-11-22T20:19:50.795Z,102074.77
2018-11-22T20:25:12.207Z,102080.44
2018-11-22T20:27:59.532Z,102078.31
2018-11-22T20:30:46.899Z,102076.47
2018-11-22T20:33:15.175Z,102073.77
2018-11-22T20:35:43.416Z,102074.12
2018-11-22T20:38:30.727Z,102078.59
2018-11-22T20:40:59.015Z,102078.16
2018-11-22T20:43:27.228Z,102072.02
2018-11-22T20:46:14.564Z,102081.33
2018-11-22T20:51:35.573Z,102074.66
2018-11-22T20:54:22.884Z,102073.83
2018-11-22T20:56:51.167Z,102075.91
2018-11-22T20:59:19.395Z,102071.05
2018-11-22T21:02:06.766Z,102068.91
2018-11-22T21:07:22.485Z,102076.24
2018-11-22T21:10:09.865Z,102079.28
2018-11-22T21:12:57.221Z,102073.10
2018-11-22T21:18:12.105Z,102075.89
2018-11-22T21:20:41.702Z,102071.86
2018-11-22T21:23:10.112Z,102074.48
2018-11-22T21:25:57.438Z,102068.32
2018-11-22T21:28:44.786Z,102069.22
2018-11-22T21:31:13.067Z,102068.02
2018-11-22T21:34:00.408Z,102064.00
2018-11-22T21:36:47.769Z,102065.77
2018-11-22T21:39:16.003Z,102067.53
2018-11-22T21:41:44.256Z,102059.59
2018-11-22T21:44:31.592Z,102063.13
2018-11-22T21:47:18.960Z,102067.54
2018-11-22T21:49:47.203Z,102067.98
2018-11-22T21:52:15.453Z,102065.38
2018-11-22T21:54:43.686Z,102063.20
2018-11-22T21:57:31.038Z,102064.59
2018-11-22T22:00:18.387Z,102066.72
2018-11-22T22:05:33.317Z,102066.14
2018-11-22T22:08:20.664Z,102062.12
2018-11-22T22:10:48.926Z,102063.42
2018-11-22T22:13:36.264Z,102067.47
2018-11-22T22:18:51.297Z,102065.32
2018-11-22T22:21:38.655Z,102064.95
2018-11-22T22:24:25.999Z,102075.58
2018-11-22T22:29:41.476Z,102072.83
2018-11-22T22:32:09.724Z,102073.74
2018-11-22T22:34:37.949Z,102073.83
2018-11-22T22:37:25.635Z,102075.66
2018-11-22T22:39:53.882Z,102073.02
2018-11-22T22:42:41.236Z,102072.95
2018-11-22T22:48:02.289Z,102072.59
2018-11-22T22:50:49.595Z,102071.25
2018-11-22T22:53:36.954Z,102074.85
2018-11-22T22:58:58.747Z,102062.00
2018-11-22T23:01:46.120Z,102069.93
2018-11-22T23:04:14.387Z,102069.88
2018-11-22T23:07:01.724Z,102070.74
2018-11-22T23:09:49.055Z,102068.19
2018-11-22T23:17:52.640Z,102065.03
2018-11-22T23:20:39.969Z,102066.34
2018-11-22T23:23:27.331Z,102068.97
2018-11-22T23:28:48.846Z,102068.61
2018-11-22T23:31:36.156Z,102066.86
2018-11-22T23:34:23.527Z,102064.15
2018-11-22T23:39:38.982Z,102059.36
2018-11-22T23:42:26.324Z,102063.40
2018-11-22T23:44:54.567Z,102055.04
2018-11-22T23:47:22.819Z,102056.36
2018-11-22T23:49:51.732Z,102055.09
2018-11-22T23:52:19.957Z,102049.26
2018-11-22T23:54:48.192Z,102052.01
2018-11-22T23:57:35.586Z,102059.00
